Time,TemperatureF,DewpointF,PressureIn,WindDirection,WindDirectionDegrees,WindSpeedMPH,WindSpeedGustMPH,Humidity,HourlyPrecipIn,Conditions,Clouds,dailyrainin,SoftwareType,DateUTC
2013-02-08 00:01:00,16.2,10.8,30.28,NW,315,2.3,3.4,79,0.00,CLR,CLR,0.00,WeatherDisplay:10.37,2013-02-08 06:01:00,
2013-02-08 00:06:00,16.0,10.6,30.28,NNW,338,3.8,4.6,79,0.00,CLR,CLR,0.00,WeatherDisplay:10.37,2013-02-08 06:06:00,
2013-02-08 00:12:00,15.8,10.4,30.28,NNW,338,1.0,2.3,79,0.00,CLR,CLR,0.00,WeatherDisplay:10.37,2013-02-08 06:12:00,
2013-02-08 00:17:00,15.6,10.3,30.28,NW,315,2.1,2.3,79,0.00,CLR,CLR,0.00,WeatherDisplay:10.37,2013-02-08 06:17:00,
2013-02-08 00:22:00,15.4,10.1,30.28,NNW,338,2.3,3.5,79,0.00,CLR,CLR,0.00,WeatherDisplay:10.37,2013-02-08 06:22:00,
2013-02-08 00:27:00,15.1,9.7,30.28,North,0,0.8,2.3,79,0.00,CLR,CLR,0.00,WeatherDisplay:10.37,2013-02-08 06:27:00,
2013-02-08 00:33:00,14.9,9.8,30.28,North,0,0.3,1.2,80,0.00,CLR,CLR,0.00,WeatherDisplay:10.37,2013-02-08 06:33:00,
2013-02-08 00:38:00,14.7,9.7,30.28,NNW,338,1.4,2.3,80,0.00,CLR,CLR,0.00,WeatherDisplay:10.37,2013-02-08 06:38:00,
2013-02-08 00:43:00,14.4,9.3,30.28,NNW,338,1.3,3.5,80,0.00,CLR,CLR,0.00,WeatherDisplay:10.37,2013-02-08 06:43:00,
2013-02-08 00:48:00,14.0,9.0,30.28,NNW,338,1.5,2.3,80,0.00,CLR,CLR,0.00,WeatherDisplay:10.37,2013-02-08 06:48:00,
2013-02-08 00:53:00,13.8,8.8,30.28,NNW,338,1.6,1.6,80,0.00,CLR,CLR,0.00,WeatherDisplay:10.37,2013-02-08 06:53:00,
2013-02-08 00:58:00,13.6,8.9,30.28,North,0,0.7,1.2,81,0.00,CLR,CLR,0.00,WeatherDisplay:10.37,2013-02-08 06:58:00,
2013-02-08 01:04:00,13.3,8.3,30.28,North,0,3.2,3.5,80,0.00,CLR,CLR,0.00,WeatherDisplay:10.37,2013-02-08 07:04:00,
2013-02-08 01:09:00,13.3,8.5,30.27,North,0,3.5,4.6,81,0.00,CLR,CLR,0.00,WeatherDisplay:10.37,2013-02-08 07:09:00,
2013-02-08 01:14:00,13.6,9.2,30.27,NNE,22,2.0,3.5,82,0.00,CLR,CLR,0.00,WeatherDisplay:10.37,2013-02-08 07:14:00,
2013-02-08 01:19:00,13.6,9.2,30.28,NW,315,1.6,3.5,82,0.00,CLR,CLR,0.00,WeatherDisplay:10.37,2013-02-08 07:19:00,
2013-02-08 01:24:00,13.3,8.8,30.28,NNW,338,2.1,2.3,82,0.00,CLR,CLR,0.00,WeatherDisplay:10.37,2013-02-08 07:24:00,
2013-02-08 01:29:00,13.1,8.4,30.28,North,0,1.5,2.3,81,0.00,CLR,CLR,0.00,WeatherDisplay:10.37,2013-02-08 07:29:00,
2013-02-08 01:35:00,12.9,8.2,30.28,NW,315,0.0,0.0,81,0.00,CLR,CLR,0.00,WeatherDisplay:10.37,2013-02-08 07:35:00,
2013-02-08 01:40:00,12.6,7.8,30.28,NW,315,0.3,1.2,81,0.00,CLR,CLR,0.00,WeatherDisplay:10.37,2013-02-08 07:40:00,
2013-02-08 01:45:00,12.2,7.5,30.28,NW,315,1.6,2.3,81,0.00,CLR,CLR,0.00,WeatherDisplay:10.37,2013-02-08 07:45:00,
2013-02-08 01:50:00,12.0,7.3,30.28,NNW,338,1.0,2.2,81,0.00,CLR,CLR,0.00,WeatherDisplay:10.37,2013-02-08 07:50:00,
2013-02-08 01:55:00,12.0,7.3,30.28,NNW,338,0.0,1.2,81,0.00,CLR,CLR,0.00,WeatherDisplay:10.37,2013-02-08 07:55:00,
2013-02-08 02:00:00,11.8,7.1,30.28,North,0,0.0,0.0,81,0.00,CLR,CLR,0.00,WeatherDisplay:10.37,2013-02-08 08:00:00,
2013-02-08 02:06:00,11.5,6.8,30.28,NW,315,0.0,0.0,81,0.00,CLR,CLR,0.00,WeatherDisplay:10.37,2013-02-08 08:06:00,
2013-02-08 02:11:00,11.1,6.4,30.28,NW,315,0.0,0.0,81,0.00,CLR,CLR,0.00,WeatherDisplay:10.37,2013-02-08 08:11:00,
2013-02-08 02:16:00,10.8,5.8,30.28,NW,315,0.0,0.0,80,0.00,CLR,CLR,0.00,WeatherDisplay:10.37,2013-02-08 08:16:00,
2013-02-08 02:22:00,10.6,5.6,30.28,NW,315,0.0,0.0,80,0.00,CLR,CLR,0.00,WeatherDisplay:10.37,2013-02-08 08:22:00,
2013-02-08 02:27:00,10.2,5.3,30.28,NW,315,0.0,0.0,80,0.00,CLR,CLR,0.00,WeatherDisplay:10.37,2013-02-08 08:27:00,
2013-02-08 02:32:00,10.0,5.1,30.28,SSE,158,0.0,0.0,80,0.00,CLR,CLR,0.00,WeatherDisplay:10.37,2013-02-08 08:32:00,
2013-02-08 02:37:00,9.5,4.6,30.28,SSE,158,0.0,0.0,80,0.00,CLR,CLR,0.00,WeatherDisplay:10.37,2013-02-08 08:37:00,
2013-02-08 02:42:00,9.1,4.2,30.28,West,270,0.0,0.0,80,0.00,CLR,CLR,0.00,WeatherDisplay:10.37,2013-02-08 08:42:00,
2013-02-08 02:48:00,8.4,3.5,30.28,WNW,292,0.0,0.0,80,0.00,CLR,CLR,0.00,WeatherDisplay:10.37,2013-02-08 08:48:00,
2013-02-08 02:53:00,8.4,3.5,30.28,NW,315,0.0,0.0,80,0.00,CLR,CLR,0.00,WeatherDisplay:10.37,2013-02-08 08:53:00,
2013-02-08 02:58:00,8.2,3.3,30.28,WNW,292,0.0,0.0,80,0.00,CLR,CLR,0.00,WeatherDisplay:10.37,2013-02-08 08:58:00,
2013-02-08 03:03:00,7.7,3.1,30.28,West,270,0.1,0.0,81,0.00,CLR,CLR,0.00,WeatherDisplay:10.37,2013-02-08 09:03:00,
2013-02-08 03:08:00,7.7,3.1,30.28,WNW,292,0.3,1.2,81,0.00,CLR,CLR,0.00,WeatherDisplay:10.37,2013-02-08 09:08:00,
2013-02-08 03:13:00,7.7,3.1,30.28,West,270,0.0,0.0,81,0.00,CLR,CLR,0.00,WeatherDisplay:10.37,2013-02-08 09:13:00,
2013-02-08 03:19:00,7.5,2.9,30.28,WNW,292,0.0,0.0,81,0.00,CLR,CLR,0.00,WeatherDisplay:10.37,2013-02-08 09:19:00,
2013-02-08 03:24:00,7.3,2.7,30.29,WNW,292,0.4,1.3,81,0.00,CLR,CLR,0.00,WeatherDisplay:10.37,2013-02-08 09:24:00,
2013-02-08 03:29:00,7.0,2.4,30.29,WNW,292,0.0,0.0,81,0.00,CLR,CLR,0.00,WeatherDisplay:10.37,2013-02-08 09:29:00,
2013-02-08 03:34:00,7.0,2.6,30.29,NNW,338,0.0,0.0,82,0.00,CLR,CLR,0.00,WeatherDisplay:10.37,2013-02-08 09:34:00,
2013-02-08 03:40:00,7.0,2.6,30.30,WNW,292,0.2,1.2,82,0.00,CLR,CLR,0.00,WeatherDisplay:10.37,2013-02-08 09:40:00,
2013-02-08 03:45:00,7.0,2.4,30.29,NNW,338,0.0,0.0,81,0.00,CLR,CLR,0.00,WeatherDisplay:10.37,2013-02-08 09:45:00,
2013-02-08 03:50:00,6.6,2.0,30.30,NW,315,0.0,0.0,81,0.00,CLR,CLR,0.00,WeatherDisplay:10.37,2013-02-08 09:50:00,
2013-02-08 03:55:00,6.6,2.0,30.29,NW,315,0.0,0.0,81,0.00,CLR,CLR,0.00,WeatherDisplay:10.37,2013-02-08 09:55:00,
2013-02-08 04:00:00,6.6,2.0,30.30,WNW,292,0.0,0.0,81,0.00,CLR,CLR,0.00,WeatherDisplay:10.37,2013-02-08 10:00:00,
2013-02-08 04:06:00,6.4,1.9,30.29,NW,315,0.0,0.0,81,0.00,CLR,CLR,0.00,WeatherDisplay:10.37,2013-02-08 10:06:00,
2013-02-08 04:11:00,6.1,1.5,30.29,NW,315,0.0,0.0,81,0.00,CLR,CLR,0.00,WeatherDisplay:10.37,2013-02-08 10:11:00,
2013-02-08 04:16:00,5.9,1.3,30.29,NW,315,0.0,0.0,81,0.00,CLR,CLR,0.00,WeatherDisplay:10.37,2013-02-08 10:16:00,
2013-02-08 04:21:00,5.7,0.9,30.30,WNW,292,0.0,0.0,80,0.00,CLR,CLR,0.00,WeatherDisplay:10.37,2013-02-08 10:21:00,
2013-02-08 04:27:00,5.4,0.8,30.30,West,270,0.0,0.0,81,0.00,CLR,CLR,0.00,WeatherDisplay:10.37,2013-02-08 10:27:00,
2013-02-08 04:32:00,5.2,0.6,30.30,WNW,292,0.0,0.0,81,0.00,CLR,CLR,0.00,WeatherDisplay:10.37,2013-02-08 10:32:00,
2013-02-08 04:37:00,5.0,0.4,30.31,West,270,0.0,0.0,81,0.00,CLR,CLR,0.00,WeatherDisplay:10.37,2013-02-08 10:37:00,
2013-02-08 04:42:00,4.8,0.3,30.30,WNW,292,0.0,0.0,81,0.00,CLR,CLR,0.00,WeatherDisplay:10.37,2013-02-08 10:42:00,
2013-02-08 04:48:00,4.8,0.0,30.30,NNW,338,0.0,0.0,80,0.00,CLR,CLR,0.00,WeatherDisplay:10.37,2013-02-08 10:48:00,
2013-02-08 04:53:00,4.8,0.0,30.31,West,270,0.0,0.0,80,0.00,CLR,CLR,0.00,WeatherDisplay:10.37,2013-02-08 10:53:00,
2013-02-08 04:58:00,4.6,-0.2,30.31,West,270,0.0,0.0,80,0.00,CLR,CLR,0.00,WeatherDisplay:10.37,2013-02-08 10:58:00,
2013-02-08 05:03:00,4.6,-0.2,30.31,West,270,0.0,0.0,80,0.00,CLR,CLR,0.00,WeatherDisplay:10.37,2013-02-08 11:03:00,
2013-02-08 05:09:00,4.5,-0.3,30.31,WNW,292,0.0,0.0,80,0.00,CLR,CLR,0.00,WeatherDisplay:10.37,2013-02-08 11:09:00,
2013-02-08 05:14:00,4.1,-0.7,30.32,West,270,0.0,0.0,80,0.00,CLR,CLR,0.00,WeatherDisplay:10.37,2013-02-08 11:14:00,
2013-02-08 05:19:00,3.9,-0.9,30.32,West,270,0.0,0.0,80,0.00,CLR,CLR,0.00,WeatherDisplay:10.37,2013-02-08 11:19:00,
2013-02-08 05:24:00,3.9,-0.6,30.32,West,270,0.0,0.0,81,0.00,CLR,CLR,0.00,WeatherDisplay:10.37,2013-02-08 11:24:00,
2013-02-08 05:30:00,3.9,-0.9,30.32,West,270,0.0,0.0,80,0.00,CLR,CLR,0.00,WeatherDisplay:10.37,2013-02-08 11:30:00,
2013-02-08 05:35:00,3.7,-1.1,30.32,WNW,292,0.0,0.0,80,0.00,CLR,CLR,0.00,WeatherDisplay:10.37,2013-02-08 11:35:00,
2013-02-08 05:40:00,3.7,-1.1,30.32,WNW,292,0.0,0.0,80,0.00,CLR,CLR,0.00,WeatherDisplay:10.37,2013-02-08 11:40:00,
2013-02-08 05:45:00,3.9,-0.9,30.32,West,270,0.0,0.0,80,0.00,CLR,CLR,0.00,WeatherDisplay:10.37,2013-02-08 11:45:00,
2013-02-08 05:50:00,3.9,-0.9,30.32,WSW,248,0.0,0.0,80,0.00,CLR,CLR,0.00,WeatherDisplay:10.37,2013-02-08 11:50:00,
2013-02-08 05:56:00,3.9,-0.9,30.32,South,180,0.0,0.0,80,0.00,CLR,CLR,0.00,WeatherDisplay:10.37,2013-02-08 11:56:00,
2013-02-08 06:01:00,3.9,-0.9,30.31,South,180,0.0,0.0,80,0.00,CLR,CLR,0.00,WeatherDisplay:10.37,2013-02-08 12:01:00,
2013-02-08 06:06:00,3.9,-0.9,30.32,South,180,0.0,0.0,80,0.00,CLR,CLR,0.00,WeatherDisplay:10.37,2013-02-08 12:06:00,
2013-02-08 06:11:00,3.9,-0.9,30.33,West,270,0.0,0.0,80,0.00,CLR,CLR,0.00,WeatherDisplay:10.37,2013-02-08 12:11:00,
2013-02-08 06:17:00,3.7,-1.1,30.33,West,270,0.0,0.0,80,0.00,CLR,CLR,0.00,WeatherDisplay:10.37,2013-02-08 12:17:00,
2013-02-08 06:22:00,3.7,-0.8,30.33,South,180,0.0,0.0,81,0.00,CLR,CLR,0.00,WeatherDisplay:10.37,2013-02-08 12:22:00,
2013-02-08 06:27:00,3.7,-0.8,30.32,South,180,0.0,0.0,81,0.00,CLR,CLR,0.00,WeatherDisplay:10.37,2013-02-08 12:27:00,
2013-02-08 06:32:00,3.9,-0.9,30.32,South,180,0.0,0.0,80,0.00,CLR,CLR,0.00,WeatherDisplay:10.37,2013-02-08 12:32:00,
2013-02-08 06:37:00,3.7,-1.1,30.32,East,90,0.0,0.0,80,0.00,CLR,CLR,0.00,WeatherDisplay:10.37,2013-02-08 12:37:00,
2013-02-08 06:43:00,3.7,-1.1,30.32,NNW,338,0.0,0.0,80,0.00,CLR,CLR,0.00,WeatherDisplay:10.37,2013-02-08 12:43:00,
2013-02-08 06:48:00,3.9,-0.6,30.32,NNE,22,0.0,0.0,81,0.00,CLR,CLR,0.00,WeatherDisplay:10.37,2013-02-08 12:48:00,
2013-02-08 06:53:00,4.1,-0.4,30.32,NNW,338,0.0,0.0,81,0.00,CLR,CLR,0.00,WeatherDisplay:10.37,2013-02-08 12:53:00,
2013-02-08 06:59:00,4.5,-0.1,30.33,West,270,0.0,0.0,81,0.00,CLR,CLR,0.00,WeatherDisplay:10.37,2013-02-08 12:59:00,
2013-02-08 07:04:00,4.6,0.1,30.32,East,90,0.0,0.0,81,0.00,CLR,CLR,0.00,WeatherDisplay:10.37,2013-02-08 13:04:00,
2013-02-08 07:09:00,4.6,0.1,30.33,WNW,292,0.0,0.0,81,0.00,CLR,CLR,0.00,WeatherDisplay:10.37,2013-02-08 13:09:00,
2013-02-08 07:14:00,4.8,0.3,30.33,NW,315,0.0,0.0,81,0.00,CLR,CLR,0.00,WeatherDisplay:10.37,2013-02-08 13:14:00,
2013-02-08 07:20:00,4.8,0.3,30.32,NW,315,0.0,0.0,81,0.00,CLR,CLR,0.00,WeatherDisplay:10.37,2013-02-08 13:20:00,
2013-02-08 07:25:00,4.8,0.3,30.33,NNW,338,0.0,0.0,81,0.00,CLR,CLR,0.00,WeatherDisplay:10.37,2013-02-08 13:25:00,
2013-02-08 07:30:00,5.0,0.4,30.33,NE,45,0.0,0.0,81,0.00,CLR,CLR,0.00,WeatherDisplay:10.37,2013-02-08 13:30:00,
2013-02-08 07:35:00,5.2,0.6,30.32,North,0,0.0,0.0,81,0.00,CLR,CLR,0.00,WeatherDisplay:10.37,2013-02-08 13:35:00,
2013-02-08 07:40:00,5.2,0.6,30.33,NE,45,0.0,0.0,81,0.00,CLR,CLR,0.00,WeatherDisplay:10.37,2013-02-08 13:40:00,
2013-02-08 07:45:00,5.4,0.8,30.33,NE,45,0.0,0.0,81,0.00,CLR,CLR,0.00,WeatherDisplay:10.37,2013-02-08 13:45:00,
2013-02-08 07:51:00,5.5,1.0,30.33,WNW,292,0.0,0.0,81,0.00,CLR,CLR,0.00,WeatherDisplay:10.37,2013-02-08 13:51:00,
2013-02-08 07:56:00,5.9,1.3,30.32,NNE,22,0.0,0.0,81,0.00,CLR,CLR,0.00,WeatherDisplay:10.37,2013-02-08 13:56:00,
2013-02-08 08:01:00,6.1,1.8,30.32,NNW,338,0.0,0.0,82,0.00,CLR,CLR,0.00,WeatherDisplay:10.37,2013-02-08 14:01:00,
2013-02-08 08:06:00,6.6,2.3,30.33,NNW,338,0.0,0.0,82,0.00,CLR,CLR,0.00,WeatherDisplay:10.37,2013-02-08 14:06:00,
2013-02-08 08:12:00,7.0,2.6,30.33,NNW,338,0.0,1.2,82,0.00,CLR,CLR,0.00,WeatherDisplay:10.37,2013-02-08 14:12:00,
2013-02-08 08:17:00,7.3,3.0,30.33,NE,45,0.3,0.0,82,0.00,CLR,CLR,0.00,WeatherDisplay:10.37,2013-02-08 14:17:00,
2013-02-08 08:22:00,7.9,3.5,30.33,NE,45,0.0,0.0,82,0.00,CLR,CLR,0.00,WeatherDisplay:10.37,2013-02-08 14:22:00,
2013-02-08 08:27:00,8.4,4.1,30.32,ENE,68,0.0,0.0,82,0.00,CLR,CLR,0.00,WeatherDisplay:10.37,2013-02-08 14:27:00,
2013-02-08 08:32:00,9.0,4.8,30.33,West,270,0.0,0.0,83,0.00,CLR,CLR,0.00,WeatherDisplay:10.37,2013-02-08 14:32:00,
2013-02-08 08:38:00,9.3,5.2,30.34,West,270,0.0,0.0,83,0.00,CLR,CLR,0.00,WeatherDisplay:10.37,2013-02-08 14:38:00,
2013-02-08 08:43:00,9.7,5.6,30.33,SW,225,0.0,0.0,83,0.00,CLR,CLR,0.00,WeatherDisplay:10.37,2013-02-08 14:43:00,
2013-02-08 08:48:00,10.2,6.1,30.34,WNW,292,0.0,0.0,83,0.00,CLR,CLR,0.00,WeatherDisplay:10.37,2013-02-08 14:48:00,
2013-02-08 08:53:00,10.2,5.8,30.34,West,270,0.0,0.0,82,0.00,CLR,CLR,0.00,WeatherDisplay:10.37,2013-02-08 14:53:00,
2013-02-08 08:59:00,10.6,6.2,30.34,NW,315,0.0,0.0,82,0.00,CLR,CLR,0.00,WeatherDisplay:10.37,2013-02-08 14:59:00,
2013-02-08 09:04:00,11.1,7.0,30.34,West,270,0.0,0.0,83,0.00,CLR,CLR,0.00,WeatherDisplay:10.37,2013-02-08 15:04:00,
2013-02-08 09:09:00,11.8,7.7,30.34,NW,315,0.0,0.0,83,0.00,CLR,CLR,0.00,WeatherDisplay:10.37,2013-02-08 15:09:00,
2013-02-08 09:14:00,12.7,8.6,30.34,NNW,338,0.0,0.0,83,0.00,CLR,CLR,0.00,WeatherDisplay:10.37,2013-02-08 15:14:00,
2013-02-08 09:20:00,13.6,9.7,30.34,NW,315,0.0,0.0,84,0.00,CLR,CLR,0.00,WeatherDisplay:10.37,2013-02-08 15:20:00,
2013-02-08 09:25:00,14.5,10.6,30.34,WNW,292,0.0,0.0,84,0.00,CLR,CLR,0.00,WeatherDisplay:10.37,2013-02-08 15:25:00,
2013-02-08 09:30:00,15.4,11.5,30.34,WNW,292,0.0,0.0,84,0.00,CLR,CLR,0.00,WeatherDisplay:10.37,2013-02-08 15:30:00,
2013-02-08 09:35:00,16.3,12.4,30.34,NNW,338,0.0,0.0,84,0.00,CLR,CLR,0.00,WeatherDisplay:10.37,2013-02-08 15:35:00,
2013-02-08 09:41:00,17.2,13.2,30.33,NNW,338,1.3,1.3,84,0.00,CLR,CLR,0.00,WeatherDisplay:10.37,2013-02-08 15:41:00,
2013-02-08 09:46:00,17.8,13.8,30.33,North,0,0.7,1.2,84,0.00,CLR,CLR,0.00,WeatherDisplay:10.37,2013-02-08 15:46:00,
2013-02-08 09:51:00,18.1,13.8,30.33,WNW,292,0.1,1.2,83,0.00,CLR,CLR,0.00,WeatherDisplay:10.37,2013-02-08 15:51:00,
2013-02-08 09:56:00,18.3,14.0,30.33,West,270,0.0,0.0,83,0.00,CLR,CLR,0.00,WeatherDisplay:10.37,2013-02-08 15:56:00,
2013-02-08 10:02:00,18.5,13.6,30.34,NW,315,0.0,2.5,81,0.00,CLR,CLR,0.00,WeatherDisplay:10.37,2013-02-08 16:02:00,
2013-02-08 10:07:00,19.2,14.3,30.33,West,270,0.0,0.0,81,0.00,CLR,CLR,0.00,WeatherDisplay:10.37,2013-02-08 16:07:00,
2013-02-08 10:12:00,20.1,15.2,30.33,ESE,112,2.1,3.5,81,0.00,CLR,CLR,0.00,WeatherDisplay:10.37,2013-02-08 16:12:00,
2013-02-08 10:18:00,21.6,16.6,30.33,SSE,158,5.7,8.0,81,0.00,CLR,CLR,0.00,WeatherDisplay:10.37,2013-02-08 16:18:00,
2013-02-08 10:23:00,22.6,17.4,30.33,SE,135,7.2,9.2,80,0.00,CLR,CLR,0.00,WeatherDisplay:10.37,2013-02-08 16:23:00,
2013-02-08 10:28:00,23.5,17.7,30.33,SE,135,9.8,12.7,78,0.00,CLR,CLR,0.00,WeatherDisplay:10.37,2013-02-08 16:28:00,
2013-02-08 10:33:00,24.1,17.6,30.33,SSE,158,8.5,13.8,76,0.00,CLR,CLR,0.00,WeatherDisplay:10.37,2013-02-08 16:33:00,
2013-02-08 10:39:00,25.0,17.9,30.34,SSE,158,10.5,13.8,74,0.00,CLR,CLR,0.00,WeatherDisplay:10.37,2013-02-08 16:39:00,
2013-02-08 10:44:00,25.2,17.4,30.33,SE,135,11.9,15.0,72,0.00,CLR,CLR,0.00,WeatherDisplay:10.37,2013-02-08 16:44:00,
2013-02-08 10:49:00,25.5,17.7,30.33,SSE,158,9.5,11.5,72,0.00,CLR,CLR,0.00,WeatherDisplay:10.37,2013-02-08 16:49:00,
2013-02-08 10:54:00,25.9,17.8,30.33,East,90,7.1,11.5,71,0.00,CLR,CLR,0.00,WeatherDisplay:10.37,2013-02-08 16:54:00,
2013-02-08 11:00:00,26.4,18.3,30.33,ESE,112,6.8,10.4,71,0.00,CLR,CLR,0.00,WeatherDisplay:10.37,2013-02-08 17:00:00,
2013-02-08 11:05:00,27.1,18.3,30.33,ESE,112,8.6,10.4,69,0.00,CLR,CLR,0.00,WeatherDisplay:10.37,2013-02-08 17:05:00,
2013-02-08 11:10:00,27.5,18.3,30.33,ESE,112,10.3,11.5,68,0.00,CLR,CLR,0.00,WeatherDisplay:10.37,2013-02-08 17:10:00,
2013-02-08 11:15:00,27.7,18.1,30.33,SE,135,9.2,10.4,67,0.00,CLR,CLR,0.00,WeatherDisplay:10.37,2013-02-08 17:15:00,
2013-02-08 11:20:00,27.9,18.0,30.33,East,90,10.9,10.9,66,0.00,CLR,CLR,0.00,WeatherDisplay:10.37,2013-02-08 17:20:00,
2013-02-08 11:26:00,28.0,18.1,30.33,SSE,158,9.0,11.5,66,0.00,CLR,CLR,0.00,WeatherDisplay:10.37,2013-02-08 17:26:00,
2013-02-08 11:31:00,28.2,18.0,30.33,SE,135,7.4,9.2,65,0.00,CLR,CLR,0.00,WeatherDisplay:10.37,2013-02-08 17:31:00,
2013-02-08 11:36:00,28.0,17.4,30.33,ESE,112,7.8,15.0,64,0.00,CLR,CLR,0.00,WeatherDisplay:10.37,2013-02-08 17:36:00,
2013-02-08 11:41:00,27.5,16.9,30.33,SE,135,7.9,11.5,64,0.00,CLR,CLR,0.00,WeatherDisplay:10.37,2013-02-08 17:41:00,
2013-02-08 11:46:00,27.5,16.9,30.33,SE,135,8.6,11.2,64,0.00,CLR,CLR,0.00,WeatherDisplay:10.37,2013-02-08 17:46:00,
2013-02-08 11:52:00,28.0,17.4,30.33,SE,135,10.8,13.8,64,0.00,CLR,CLR,0.00,WeatherDisplay:10.37,2013-02-08 17:52:00,
2013-02-08 11:57:00,28.8,18.1,30.33,East,90,8.7,11.5,64,0.00,CLR,CLR,0.00,WeatherDisplay:10.37,2013-02-08 17:57:00,
2013-02-08 12:02:00,29.3,18.3,30.32,SE,135,10.1,11.5,63,0.00,CLR,CLR,0.00,WeatherDisplay:10.37,2013-02-08 18:02:00,
2013-02-08 12:07:00,30.0,18.9,30.32,ESE,112,9.0,10.4,63,0.00,CLR,CLR,0.00,WeatherDisplay:10.37,2013-02-08 18:07:00,
2013-02-08 12:12:00,30.7,19.2,30.33,SE,135,9.2,11.5,62,0.00,CLR,CLR,0.00,WeatherDisplay:10.37,2013-02-08 18:12:00,
2013-02-08 12:17:00,31.3,19.4,30.32,South,180,7.6,10.4,61,0.00,CLR,CLR,0.00,WeatherDisplay:10.37,2013-02-08 18:17:00,
2013-02-08 12:23:00,31.8,19.9,30.32,SE,135,8.6,11.5,61,0.00,CLR,CLR,0.00,WeatherDisplay:10.37,2013-02-08 18:23:00,
2013-02-08 12:28:00,32.4,20.0,30.32,ESE,112,8.6,11.5,60,0.00,CLR,CLR,0.00,WeatherDisplay:10.37,2013-02-08 18:28:00,
2013-02-08 12:34:00,32.9,20.5,30.31,ESE,112,6.8,9.2,60,0.00,CLR,CLR,0.00,WeatherDisplay:10.37,2013-02-08 18:34:00,
2013-02-08 12:39:00,33.6,20.8,30.31,SSE,158,7.3,11.5,59,0.00,CLR,CLR,0.00,WeatherDisplay:10.37,2013-02-08 18:39:00,
2013-02-08 12:44:00,34.2,20.9,30.31,SSE,158,7.3,9.2,58,0.00,CLR,CLR,0.00,WeatherDisplay:10.37,2013-02-08 18:44:00,
2013-02-08 12:49:00,34.3,20.7,30.31,SSE,158,5.8,8.1,57,0.00,CLR,CLR,0.00,WeatherDisplay:10.37,2013-02-08 18:49:00,
2013-02-08 12:54:00,34.3,20.3,30.30,SSE,158,11.7,16.1,56,0.00,CLR,CLR,0.00,WeatherDisplay:10.37,2013-02-08 18:54:00,
2013-02-08 13:00:00,34.3,20.7,30.31,South,180,5.7,8.1,57,0.00,CLR,CLR,0.00,WeatherDisplay:10.37,2013-02-08 19:00:00,
2013-02-08 13:05:00,34.3,20.3,30.30,ESE,112,7.6,11.5,56,0.00,CLR,CLR,0.00,WeatherDisplay:10.37,2013-02-08 19:05:00,
2013-02-08 13:10:00,34.2,20.5,30.30,South,180,5.3,9.2,57,0.00,CLR,CLR,0.00,WeatherDisplay:10.37,2013-02-08 19:10:00,
2013-02-08 13:16:00,34.5,20.4,30.29,South,180,5.1,9.2,56,0.00,CLR,CLR,0.00,WeatherDisplay:10.37,2013-02-08 19:16:00,
2013-02-08 13:21:00,34.2,20.1,30.30,SSE,158,5.5,10.3,56,0.00,CLR,CLR,0.00,WeatherDisplay:10.37,2013-02-08 19:21:00,
2013-02-08 13:26:00,34.2,20.1,30.29,South,180,7.7,10.4,56,0.00,CLR,CLR,0.00,WeatherDisplay:10.37,2013-02-08 19:26:00,
2013-02-08 13:31:00,34.0,20.3,30.29,East,90,6.6,9.2,57,0.00,CLR,CLR,0.00,WeatherDisplay:10.37,2013-02-08 19:31:00,
2013-02-08 13:36:00,34.3,20.7,30.28,SE,135,8.9,10.4,57,0.00,CLR,CLR,0.00,WeatherDisplay:10.37,2013-02-08 19:36:00,
2013-02-08 13:42:00,34.5,20.4,30.29,South,180,5.2,10.1,56,0.00,CLR,CLR,0.00,WeatherDisplay:10.37,2013-02-08 19:42:00,
2013-02-08 13:47:00,34.5,20.4,30.28,South,180,10.6,11.5,56,0.00,CLR,CLR,0.00,WeatherDisplay:10.37,2013-02-08 19:47:00,
2013-02-08 13:52:00,33.6,19.6,30.28,SE,135,7.3,9.2,56,0.00,CLR,CLR,0.00,WeatherDisplay:10.37,2013-02-08 19:52:00,
2013-02-08 13:57:00,33.3,19.2,30.28,ESE,112,9.1,11.5,56,0.00,CLR,CLR,0.00,WeatherDisplay:10.37,2013-02-08 19:57:00,
2013-02-08 14:03:00,32.9,19.3,30.28,ESE,112,7.2,8.1,57,0.00,CLR,CLR,0.00,WeatherDisplay:10.37,2013-02-08 20:03:00,
2013-02-08 14:08:00,32.9,19.3,30.27,SE,135,7.3,9.2,57,0.00,CLR,CLR,0.00,WeatherDisplay:10.37,2013-02-08 20:08:00,
2013-02-08 14:13:00,33.3,19.7,30.27,ESE,112,8.5,12.7,57,0.00,CLR,CLR,0.00,WeatherDisplay:10.37,2013-02-08 20:13:00,
2013-02-08 14:18:00,33.8,20.6,30.28,SE,135,8.5,10.5,58,0.00,CLR,CLR,0.00,WeatherDisplay:10.37,2013-02-08 20:18:00,
2013-02-08 14:23:00,34.9,21.2,30.27,ESE,112,9.4,11.5,57,0.00,CLR,CLR,0.00,WeatherDisplay:10.37,2013-02-08 20:23:00,
2013-02-08 14:29:00,35.8,21.6,30.26,East,90,8.0,11.5,56,0.00,CLR,CLR,0.00,WeatherDisplay:10.37,2013-02-08 20:29:00,
2013-02-08 14:34:00,35.8,21.2,30.26,ESE,112,9.5,10.4,55,0.00,CLR,CLR,0.00,WeatherDisplay:10.37,2013-02-08 20:34:00,
2013-02-08 14:39:00,35.4,20.8,30.26,ESE,112,9.4,10.1,55,0.00,CLR,CLR,0.00,WeatherDisplay:10.37,2013-02-08 20:39:00,
2013-02-08 14:44:00,34.9,20.3,30.26,SE,135,8.7,10.4,55,0.00,CLR,CLR,0.00,WeatherDisplay:10.37,2013-02-08 20:44:00,
2013-02-08 14:49:00,34.2,19.7,30.26,East,90,9.0,11.5,55,0.00,CLR,CLR,0.00,WeatherDisplay:10.37,2013-02-08 20:49:00,
2013-02-08 14:54:00,34.0,19.9,30.26,ESE,112,6.8,9.2,56,0.00,CLR,CLR,0.00,WeatherDisplay:10.37,2013-02-08 20:54:00,
2013-02-08 15:00:00,33.8,19.7,30.26,SE,135,8.1,11.5,56,0.00,CLR,CLR,0.00,WeatherDisplay:10.37,2013-02-08 21:00:00,
2013-02-08 15:05:00,34.0,20.3,30.26,South,180,5.9,8.1,57,0.00,CLR,CLR,0.00,WeatherDisplay:10.37,2013-02-08 21:05:00,
2013-02-08 15:10:00,34.3,20.7,30.26,South,180,6.9,10.4,57,0.00,CLR,CLR,0.00,WeatherDisplay:10.37,2013-02-08 21:10:00,
2013-02-08 15:15:00,34.0,19.9,30.26,SSE,158,11.0,15.0,56,0.00,CLR,CLR,0.00,WeatherDisplay:10.37,2013-02-08 21:15:00,
2013-02-08 15:20:00,32.5,18.6,30.26,SSE,158,8.0,10.4,56,0.00,CLR,CLR,0.00,WeatherDisplay:10.37,2013-02-08 21:20:00,
2013-02-08 15:25:00,30.9,17.5,30.26,SE,135,3.3,9.8,57,0.00,CLR,CLR,0.00,WeatherDisplay:10.37,2013-02-08 21:25:00,
2013-02-08 15:31:00,30.2,17.2,30.26,SE,135,8.4,10.4,58,0.00,CLR,CLR,0.00,WeatherDisplay:10.37,2013-02-08 21:31:00,
2013-02-08 15:36:00,29.8,17.2,30.26,SE,135,5.5,10.4,59,0.00,CLR,CLR,0.00,WeatherDisplay:10.37,2013-02-08 21:36:00,
2013-02-08 15:41:00,29.8,17.6,30.25,SSE,158,7.2,9.2,60,0.00,CLR,CLR,0.00,WeatherDisplay:10.37,2013-02-08 21:41:00,
2013-02-08 15:46:00,29.5,17.3,30.25,SSE,158,7.4,9.2,60,0.00,CLR,CLR,0.00,WeatherDisplay:10.37,2013-02-08 21:46:00,
2013-02-08 15:51:00,29.1,17.3,30.25,ESE,112,8.0,12.7,61,0.00,CLR,CLR,0.00,WeatherDisplay:10.37,2013-02-08 21:51:00,
2013-02-08 15:57:00,28.6,17.2,30.25,SE,135,10.3,11.5,62,0.00,CLR,CLR,0.00,WeatherDisplay:10.37,2013-02-08 21:57:00,
2013-02-08 16:02:00,27.7,16.3,30.24,South,180,9.3,13.8,62,0.00,CLR,CLR,0.00,WeatherDisplay:10.37,2013-02-08 22:02:00,
2013-02-08 16:07:00,27.0,16.0,30.24,ESE,112,8.6,10.4,63,0.00,CLR,CLR,0.00,WeatherDisplay:10.37,2013-02-08 22:07:00,
2013-02-08 16:12:00,26.8,16.2,30.24,ESE,112,9.5,11.5,64,0.00,CLR,CLR,0.00,WeatherDisplay:10.37,2013-02-08 22:12:00,
2013-02-08 16:18:00,26.4,16.2,30.24,SE,135,9.3,12.7,65,0.00,CLR,CLR,0.00,WeatherDisplay:10.37,2013-02-08 22:18:00,
2013-02-08 16:23:00,26.2,16.4,30.24,SSE,158,10.3,10.3,66,0.00,CLR,CLR,0.00,WeatherDisplay:10.37,2013-02-08 22:23:00,
2013-02-08 16:28:00,25.9,16.4,30.23,SSE,158,8.7,13.8,67,0.00,CLR,CLR,0.00,WeatherDisplay:10.37,2013-02-08 22:28:00,
2013-02-08 16:33:00,25.5,16.4,30.23,SE,135,11.4,16.1,68,0.00,CLR,CLR,0.00,WeatherDisplay:10.37,2013-02-08 22:33:00,
2013-02-08 16:38:00,25.0,15.9,30.23,SE,135,11.7,15.0,68,0.00,CLR,CLR,0.00,WeatherDisplay:10.37,2013-02-08 22:38:00,
2013-02-08 16:44:00,25.0,16.2,30.23,South,180,12.1,15.0,69,0.00,CLR,CLR,0.00,WeatherDisplay:10.37,2013-02-08 22:44:00,
2013-02-08 16:49:00,24.6,16.2,30.23,SSW,202,11.0,15.0,70,0.00,CLR,CLR,0.00,WeatherDisplay:10.37,2013-02-08 22:49:00,
2013-02-08 16:54:00,24.4,16.1,30.23,SSE,158,7.8,7.8,70,0.00,CLR,CLR,0.00,WeatherDisplay:10.37,2013-02-08 22:54:00,
2013-02-08 16:59:00,24.1,15.7,30.22,SSW,202,3.4,6.9,70,0.00,CLR,CLR,0.00,WeatherDisplay:10.37,2013-02-08 22:59:00,
2013-02-08 17:04:00,24.1,15.7,30.22,South,180,3.5,5.8,70,0.00,CLR,CLR,0.00,WeatherDisplay:10.37,2013-02-08 23:04:00,
2013-02-08 17:10:00,24.1,15.7,30.22,SSE,158,6.3,9.2,70,0.00,CLR,CLR,0.00,WeatherDisplay:10.37,2013-02-08 23:10:00,
2013-02-08 17:15:00,23.7,15.4,30.21,SSE,158,5.8,8.1,70,0.00,CLR,CLR,0.00,WeatherDisplay:10.37,2013-02-08 23:15:00,
2013-02-08 17:20:00,23.2,15.2,30.21,SSE,158,3.8,5.8,71,0.00,CLR,CLR,0.00,WeatherDisplay:10.37,2013-02-08 23:20:00,
2013-02-08 17:25:00,22.8,14.8,30.22,ESE,112,4.8,8.1,71,0.00,CLR,CLR,0.00,WeatherDisplay:10.37,2013-02-08 23:25:00,
2013-02-08 17:30:00,22.3,14.3,30.22,SSE,158,5.9,8.1,71,0.00,CLR,CLR,0.00,WeatherDisplay:10.37,2013-02-08 23:30:00,
2013-02-08 17:36:00,21.9,14.3,30.22,SE,135,4.0,4.6,72,0.00,CLR,CLR,0.00,WeatherDisplay:10.37,2013-02-08 23:36:00,
2013-02-08 17:41:00,21.6,13.9,30.21,ESE,112,4.9,8.1,72,0.00,CLR,CLR,0.00,WeatherDisplay:10.37,2013-02-08 23:41:00,
2013-02-08 17:46:00,21.4,14.1,30.21,SE,135,4.2,8.1,73,0.00,CLR,CLR,0.00,WeatherDisplay:10.37,2013-02-08 23:46:00,
2013-02-08 17:51:00,21.0,13.7,30.21,SE,135,8.0,9.2,73,0.00,CLR,CLR,0.00,WeatherDisplay:10.37,2013-02-08 23:51:00,
2013-02-08 17:57:00,20.8,13.5,30.20,ESE,112,6.9,10.4,73,0.00,CLR,CLR,0.00,WeatherDisplay:10.37,2013-02-08 23:57:00,
2013-02-08 18:02:00,20.8,13.9,30.20,SE,135,4.8,10.5,74,0.00,CLR,CLR,0.00,WeatherDisplay:10.37,2013-02-09 00:02:00,
2013-02-08 18:07:00,20.5,13.5,30.20,ESE,112,5.2,5.8,74,0.00,CLR,CLR,0.00,WeatherDisplay:10.37,2013-02-09 00:07:00,
2013-02-08 18:12:00,20.5,13.8,30.20,SSE,158,4.2,4.7,75,0.00,CLR,CLR,0.00,WeatherDisplay:10.37,2013-02-09 00:12:00,
2013-02-08 18:17:00,20.5,13.8,30.21,SE,135,6.1,9.2,75,0.00,CLR,CLR,0.00,WeatherDisplay:10.37,2013-02-09 00:17:00,
2013-02-08 18:23:00,20.3,13.6,30.21,South,180,5.8,8.1,75,0.00,CLR,CLR,0.00,WeatherDisplay:10.37,2013-02-09 00:23:00,
2013-02-08 18:28:00,20.3,13.6,30.21,SE,135,6.7,10.4,75,0.00,CLR,CLR,0.00,WeatherDisplay:10.37,2013-02-09 00:28:00,
2013-02-08 18:33:00,20.3,13.9,30.21,SE,135,7.9,10.1,76,0.00,CLR,CLR,0.00,WeatherDisplay:10.37,2013-02-09 00:33:00,
2013-02-08 18:38:00,20.3,13.9,30.21,SE,135,6.3,9.2,76,0.00,CLR,CLR,0.00,WeatherDisplay:10.37,2013-02-09 00:38:00,
2013-02-08 18:44:00,20.1,13.8,30.21,SE,135,5.4,5.8,76,0.00,CLR,CLR,0.00,WeatherDisplay:10.37,2013-02-09 00:44:00,
2013-02-08 18:49:00,20.1,13.8,30.21,South,180,4.9,9.2,76,0.00,CLR,CLR,0.00,WeatherDisplay:10.37,2013-02-09 00:49:00,
2013-02-08 18:54:00,19.9,13.6,30.21,SE,135,6.3,8.1,76,0.00,CLR,CLR,0.00,WeatherDisplay:10.37,2013-02-09 00:54:00,
2013-02-08 18:59:00,19.9,13.9,30.21,SSE,158,5.0,6.9,77,0.00,CLR,CLR,0.00,WeatherDisplay:10.37,2013-02-09 00:59:00,
2013-02-08 19:04:00,19.8,13.7,30.21,ESE,112,6.0,8.1,77,0.00,CLR,CLR,0.00,WeatherDisplay:10.37,2013-02-09 01:04:00,
2013-02-08 19:10:00,19.6,13.5,30.21,SE,135,6.1,8.1,77,0.00,CLR,CLR,0.00,WeatherDisplay:10.37,2013-02-09 01:10:00,
2013-02-08 19:15:00,19.4,13.4,30.20,ESE,112,6.0,8.1,77,0.00,CLR,CLR,0.00,WeatherDisplay:10.37,2013-02-09 01:15:00,
2013-02-08 19:20:00,19.2,13.2,30.20,SSE,158,4.9,8.1,77,0.00,CLR,CLR,0.00,WeatherDisplay:10.37,2013-02-09 01:20:00,
2013-02-08 19:25:00,19.2,13.2,30.20,ESE,112,5.3,5.3,77,0.00,CLR,CLR,0.00,WeatherDisplay:10.37,2013-02-09 01:25:00,
2013-02-08 19:31:00,19.0,13.3,30.19,ESE,112,4.2,8.3,78,0.00,CLR,CLR,0.00,WeatherDisplay:10.37,2013-02-09 01:31:00,
2013-02-08 19:36:00,18.9,13.1,30.20,SE,135,4.7,8.1,78,0.00,CLR,CLR,0.00,WeatherDisplay:10.37,2013-02-09 01:36:00,
2013-02-08 19:41:00,18.7,13.0,30.20,SE,135,5.3,6.9,78,0.00,CLR,CLR,0.00,WeatherDisplay:10.37,2013-02-09 01:41:00,
2013-02-08 19:46:00,18.5,12.8,30.20,ESE,112,7.6,8.1,78,0.00,CLR,CLR,0.00,WeatherDisplay:10.37,2013-02-09 01:46:00,
2013-02-08 19:52:00,18.5,12.8,30.19,SE,135,7.2,8.1,78,0.00,CLR,CLR,0.00,WeatherDisplay:10.37,2013-02-09 01:52:00,
2013-02-08 19:57:00,18.3,12.9,30.19,ESE,112,4.3,8.1,79,0.00,CLR,CLR,0.00,WeatherDisplay:10.37,2013-02-09 01:57:00,
2013-02-08 20:02:00,18.3,12.9,30.19,SE,135,6.9,12.7,79,0.00,CLR,CLR,0.00,WeatherDisplay:10.37,2013-02-09 02:02:00,
2013-02-08 20:07:00,18.3,12.9,30.19,SE,135,10.1,11.5,79,0.00,CLR,CLR,0.00,WeatherDisplay:10.37,2013-02-09 02:07:00,
2013-02-08 20:13:00,18.3,12.9,30.18,SE,135,7.4,9.2,79,0.00,CLR,CLR,0.00,WeatherDisplay:10.37,2013-02-09 02:13:00,
2013-02-08 20:18:00,18.3,13.2,30.18,SE,135,8.7,11.5,80,0.00,CLR,CLR,0.00,WeatherDisplay:10.37,2013-02-09 02:18:00,
2013-02-08 20:23:00,18.3,13.2,30.18,SSE,158,5.0,9.2,80,0.00,CLR,CLR,0.00,WeatherDisplay:10.37,2013-02-09 02:23:00,
2013-02-08 20:28:00,18.3,13.2,30.18,SSE,158,4.5,6.9,80,0.00,CLR,CLR,0.00,WeatherDisplay:10.37,2013-02-09 02:28:00,
2013-02-08 20:34:00,18.7,13.5,30.18,SE,135,6.4,9.2,80,0.00,CLR,CLR,0.00,WeatherDisplay:10.37,2013-02-09 02:34:00,
2013-02-08 20:39:00,19.0,14.2,30.18,SE,135,6.6,8.7,81,0.00,CLR,CLR,0.00,WeatherDisplay:10.37,2013-02-09 02:39:00,
2013-02-08 20:44:00,19.4,14.5,30.18,SE,135,7.1,10.4,81,0.00,CLR,CLR,0.00,WeatherDisplay:10.37,2013-02-09 02:44:00,
2013-02-08 20:49:00,19.9,15.0,30.18,SE,135,5.9,10.7,81,0.00,CLR,CLR,0.00,WeatherDisplay:10.37,2013-02-09 02:49:00,
2013-02-08 20:55:00,20.1,15.2,30.18,SE,135,6.7,11.2,81,0.00,CLR,CLR,0.00,WeatherDisplay:10.37,2013-02-09 02:55:00,
2013-02-08 21:00:00,20.5,15.6,30.18,SE,135,7.7,11.5,81,0.00,CLR,CLR,0.00,WeatherDisplay:10.37,2013-02-09 03:00:00,
2013-02-08 21:05:00,20.5,15.6,30.18,ESE,112,6.5,11.5,81,0.00,CLR,CLR,0.00,WeatherDisplay:10.37,2013-02-09 03:05:00,
2013-02-08 21:10:00,20.5,15.6,30.18,SSE,158,6.6,10.4,81,0.00,CLR,CLR,0.00,WeatherDisplay:10.37,2013-02-09 03:10:00,
2013-02-08 21:16:00,20.7,15.8,30.18,SE,135,7.3,12.7,81,0.00,CLR,CLR,0.00,WeatherDisplay:10.37,2013-02-09 03:16:00,
2013-02-08 21:21:00,20.8,15.6,30.18,SE,135,7.6,8.1,80,0.00,CLR,CLR,0.00,WeatherDisplay:10.37,2013-02-09 03:21:00,
2013-02-08 21:26:00,20.8,15.6,30.18,SE,135,7.0,8.9,80,0.00,CLR,CLR,0.00,WeatherDisplay:10.37,2013-02-09 03:26:00,
2013-02-08 21:31:00,20.8,15.6,30.18,SSE,158,6.0,8.9,80,0.00,CLR,CLR,0.00,WeatherDisplay:10.37,2013-02-09 03:31:00,
2013-02-08 21:37:00,20.8,15.6,30.18,SE,135,4.5,5.8,80,0.00,CLR,CLR,0.00,WeatherDisplay:10.37,2013-02-09 03:37:00,
2013-02-08 21:42:00,20.8,15.6,30.17,SE,135,6.8,8.1,80,0.00,CLR,CLR,0.00,WeatherDisplay:10.37,2013-02-09 03:42:00,
2013-02-08 21:47:00,21.0,15.8,30.18,SE,135,5.2,9.2,80,0.00,CLR,CLR,0.00,WeatherDisplay:10.37,2013-02-09 03:47:00,
2013-02-08 21:52:00,21.0,15.8,30.17,SSE,158,5.3,6.9,80,0.00,CLR,CLR,0.00,WeatherDisplay:10.37,2013-02-09 03:52:00,
2013-02-08 21:57:00,21.0,15.8,30.17,SE,135,5.9,9.2,80,0.00,CLR,CLR,0.00,WeatherDisplay:10.37,2013-02-09 03:57:00,
2013-02-08 22:02:00,21.0,15.8,30.17,SE,135,6.1,8.1,80,0.00,CLR,CLR,0.00,WeatherDisplay:10.37,2013-02-09 04:02:00,
2013-02-08 22:08:00,21.4,16.2,30.16,SE,135,5.4,6.9,80,0.00,CLR,CLR,0.00,WeatherDisplay:10.37,2013-02-09 04:08:00,
2013-02-08 22:13:00,21.4,16.2,30.17,SE,135,4.4,6.9,80,0.00,CLR,CLR,0.00,WeatherDisplay:10.37,2013-02-09 04:13:00,
2013-02-08 22:18:00,21.4,16.2,30.17,SE,135,6.3,9.2,80,0.00,CLR,CLR,0.00,WeatherDisplay:10.37,2013-02-09 04:18:00,
2013-02-08 22:24:00,21.4,16.2,30.16,SE,135,6.4,9.2,80,0.00,CLR,CLR,0.00,WeatherDisplay:10.37,2013-02-09 04:24:00,
2013-02-08 22:29:00,21.4,16.2,30.16,SE,135,5.8,6.9,80,0.00,CLR,CLR,0.00,WeatherDisplay:10.37,2013-02-09 04:29:00,
2013-02-08 22:34:00,21.4,16.2,30.16,ESE,112,9.7,11.5,80,0.00,CLR,CLR,0.00,WeatherDisplay:10.37,2013-02-09 04:34:00,
2013-02-08 22:39:00,21.4,16.5,30.16,SSE,158,8.0,10.4,81,0.00,CLR,CLR,0.00,WeatherDisplay:10.37,2013-02-09 04:39:00,
2013-02-08 22:45:00,21.6,16.6,30.16,SE,135,7.5,9.2,81,0.00,CLR,CLR,0.00,WeatherDisplay:10.37,2013-02-09 04:45:00,
2013-02-08 22:50:00,21.6,16.6,30.16,ESE,112,7.9,13.8,81,0.00,CLR,CLR,0.00,WeatherDisplay:10.37,2013-02-09 04:50:00,
2013-02-08 22:55:00,21.6,16.6,30.16,SSE,158,7.0,10.4,81,0.00,CLR,CLR,0.00,WeatherDisplay:10.37,2013-02-09 04:55:00,
2013-02-08 23:00:00,21.6,16.6,30.16,SSE,158,8.7,9.2,81,0.00,CLR,CLR,0.00,WeatherDisplay:10.37,2013-02-09 05:00:00,
2013-02-08 23:01:00,21.6,16.6,30.16,SE,135,7.4,10.3,81,0.00,CLR,CLR,0.00,WeatherDisplay:10.37,2013-02-09 05:01:00,
2013-02-08 23:02:00,21.6,16.6,30.15,SE,135,8.8,10.4,81,0.00,CLR,CLR,0.00,WeatherDisplay:10.37,2013-02-09 05:02:00,
2013-02-08 23:07:00,21.6,16.6,30.15,SE,135,8.1,9.2,81,0.00,CLR,CLR,0.00,WeatherDisplay:10.37,2013-02-09 05:07:00,
2013-02-08 23:13:00,21.7,16.8,30.16,SE,135,8.3,9.2,81,0.00,CLR,CLR,0.00,WeatherDisplay:10.37,2013-02-09 05:13:00,
2013-02-08 23:18:00,21.7,16.8,30.16,SSE,158,8.5,10.4,81,0.00,CLR,CLR,0.00,WeatherDisplay:10.37,2013-02-09 05:18:00,
2013-02-08 23:23:00,21.7,17.1,30.14,ESE,112,6.6,8.3,82,0.00,CLR,CLR,0.00,WeatherDisplay:10.37,2013-02-09 05:23:00,
2013-02-08 23:28:00,21.9,17.3,30.15,SE,135,6.1,6.9,82,0.00,CLR,CLR,0.00,WeatherDisplay:10.37,2013-02-09 05:28:00,
2013-02-08 23:33:00,21.9,17.3,30.15,SSE,158,6.1,10.4,82,0.00,CLR,CLR,0.00,WeatherDisplay:10.37,2013-02-09 05:33:00,
2013-02-08 23:39:00,21.9,17.3,30.14,SE,135,5.4,8.1,82,0.00,CLR,CLR,0.00,WeatherDisplay:10.37,2013-02-09 05:39:00,
2013-02-08 23:44:00,21.9,17.3,30.15,SSE,158,7.0,7.4,82,0.00,CLR,CLR,0.00,WeatherDisplay:10.37,2013-02-09 05:44:00,
2013-02-08 23:49:00,22.1,17.4,30.15,ESE,112,5.4,5.8,82,0.00,CLR,CLR,0.00,WeatherDisplay:10.37,2013-02-09 05:49:00,
2013-02-08 23:54:00,22.1,17.4,30.14,SSE,158,7.4,9.2,82,0.00,CLR,CLR,0.00,WeatherDisplay:10.37,2013-02-09 05:54:00,
2013-02-08 23:59:00,22.3,17.6,30.14,SE,135,6.5,8.1,82,0.00,CLR,CLR,0.00,WeatherDisplay:10.37,2013-02-09 05:59:00,